createdAt,value
2019-05-13T00:02:19.816Z,103282.91
2019-05-13T00:04:53.098Z,103286.41
2019-05-13T00:07:24.080Z,103287.84
2019-05-13T00:09:55.308Z,103284.82
2019-05-13T00:12:26.548Z,103283.09
2019-05-13T00:14:57.743Z,103285.59
2019-05-13T00:17:29.010Z,103281.01
2019-05-13T00:20:00.275Z,103284.57
2019-05-13T00:22:33.867Z,103288.11
2019-05-13T00:25:04.389Z,103281.46
2019-05-13T00:27:35.779Z,103287.16
2019-05-13T00:30:09.210Z,103282.97
2019-05-13T00:32:40.482Z,103286.00
2019-05-13T00:35:14.215Z,103288.48
2019-05-13T00:37:45.731Z,103293.54
2019-05-13T00:40:17.084Z,103297.39
2019-05-13T00:42:48.258Z,103291.70
2019-05-13T00:45:19.537Z,103290.53
2019-05-13T00:47:50.784Z,103299.16
2019-05-13T00:50:24.018Z,103300.55
2019-05-13T00:52:54.872Z,103295.17
2019-05-13T00:55:26.085Z,103288.05
2019-05-13T00:57:57.394Z,103295.19
2019-05-13T01:00:28.772Z,103290.17
2019-05-13T01:02:59.972Z,103288.00
2019-05-13T01:05:31.218Z,103286.55
2019-05-13T01:08:04.257Z,103287.59
2019-05-13T01:10:35.552Z,103291.07
2019-05-13T01:13:06.748Z,103292.05
2019-05-13T01:15:37.996Z,103280.73
2019-05-13T01:18:09.213Z,103278.89
2019-05-13T01:20:40.435Z,103287.73
2019-05-13T01:23:13.890Z,103290.21
2019-05-13T01:25:44.727Z,103286.56
2019-05-13T01:28:15.918Z,103289.50
2019-05-13T01:30:47.180Z,103285.86
2019-05-13T01:33:18.470Z,103281.92
2019-05-13T01:35:49.732Z,103286.59
2019-05-13T01:38:21.166Z,103282.38
2019-05-13T01:40:53.999Z,103285.91
2019-05-13T01:43:25.202Z,103282.36
2019-05-13T01:45:56.475Z,103283.98
2019-05-13T01:48:27.764Z,103284.20
2019-05-13T01:50:58.974Z,103287.02
2019-05-13T01:53:30.230Z,103290.48
2019-05-13T01:56:03.648Z,103291.55
2019-05-13T01:58:34.424Z,103289.62
2019-05-13T02:01:05.772Z,103296.84
2019-05-13T02:03:37.076Z,103298.11
2019-05-13T02:06:08.291Z,103289.98
2019-05-13T02:08:39.441Z,103282.44
2019-05-13T02:11:10.717Z,103279.36
2019-05-13T02:13:44.489Z,103285.83
2019-05-13T02:16:14.840Z,103291.59
2019-05-13T02:18:46.085Z,103290.87
2019-05-13T02:21:17.341Z,103288.74
2019-05-13T02:23:48.677Z,103291.66
2019-05-13T02:26:19.905Z,103291.44
2019-05-13T02:28:51.108Z,103301.34
2019-05-13T02:31:38.911Z,103298.31
2019-05-13T02:33:55.216Z,103296.06
2019-05-13T02:36:26.494Z,103289.34
2019-05-13T02:38:57.747Z,103296.77
2019-05-13T02:41:29.020Z,103299.86
2019-05-13T02:44:03.208Z,103299.59
2019-05-13T02:46:34.033Z,103303.27
2019-05-13T02:49:05.538Z,103302.95
2019-05-13T02:51:36.784Z,103306.58
2019-05-13T02:54:07.979Z,103302.93
2019-05-13T02:56:41.584Z,103303.55
2019-05-13T02:59:13.210Z,103306.55
2019-05-13T03:01:44.729Z,103313.33
2019-05-13T03:04:15.934Z,103308.91
2019-05-13T03:06:47.140Z,103311.94
2019-05-13T03:09:18.371Z,103313.41
2019-05-13T03:11:53.203Z,103322.69
2019-05-13T03:14:23.947Z,103318.58
2019-05-13T03:17:03.256Z,103328.77
2019-05-13T03:19:34.065Z,103319.05
2019-05-13T03:22:05.342Z,103323.28
2019-05-13T03:24:36.590Z,103331.64
2019-05-13T03:27:07.779Z,103331.91
2019-05-13T03:29:39.015Z,103336.10
2019-05-13T03:32:15.755Z,103337.52
2019-05-13T03:34:45.578Z,103335.95
2019-05-13T03:37:16.737Z,103338.23
2019-05-13T03:39:52.145Z,103340.62
2019-05-13T03:42:26.275Z,103336.44
2019-05-13T03:45:03.096Z,103338.28
2019-05-13T03:47:35.425Z,103338.04
2019-05-13T03:50:08.525Z,103344.47
2019-05-13T03:52:43.117Z,103347.39
2019-05-13T03:55:13.311Z,103347.95
2019-05-13T03:57:44.644Z,103348.25
2019-05-13T04:00:16.384Z,103353.67
2019-05-13T04:02:48.087Z,103352.49
2019-05-13T04:05:22.478Z,103355.58
2019-05-13T04:07:52.883Z,103357.22
2019-05-13T04:10:24.130Z,103358.34
2019-05-13T04:12:55.564Z,103359.21
2019-05-13T04:15:26.853Z,103365.61
2019-05-13T04:18:02.537Z,103364.98
2019-05-13T04:20:33.263Z,103368.09
2019-05-13T04:23:04.409Z,103360.76
2019-05-13T04:25:39.593Z,103360.34
2019-05-13T04:28:08.793Z,103363.88
2019-05-13T04:30:43.358Z,103359.08
2019-05-13T04:33:14.161Z,103359.37
2019-05-13T04:35:45.744Z,103362.34
2019-05-13T04:38:16.913Z,103368.44
2019-05-13T04:40:48.152Z,103363.92
2019-05-13T04:43:23.205Z,103365.49
2019-05-13T04:45:52.738Z,103367.41
2019-05-13T04:48:24.195Z,103366.77
2019-05-13T04:50:55.792Z,103370.17
2019-05-13T04:53:27.230Z,103370.04
2019-05-13T04:56:03.075Z,103366.27
2019-05-13T04:58:35.513Z,103367.52
2019-05-13T05:01:55.354Z,103368.53
2019-05-13T05:04:54.805Z,103366.46
2019-05-13T05:08:24.670Z,103372.50
2019-05-13T05:12:04.908Z,103378.43
2019-05-13T05:15:52.253Z,103380.84
2019-05-13T05:19:24.883Z,103384.09
2019-05-13T05:22:17.808Z,103388.99
2019-05-13T05:25:15.021Z,103392.48
2019-05-13T05:28:15.419Z,103398.48
2019-05-13T05:31:58.383Z,103386.92
2019-05-13T05:35:33.381Z,103391.67
2019-05-13T05:38:43.485Z,103390.37
2019-05-13T05:41:21.355Z,103393.48
2019-05-13T05:43:56.619Z,103394.23
2019-05-13T05:46:32.228Z,103393.00
2019-05-13T05:49:09.111Z,103399.69
2019-05-13T05:51:42.002Z,103395.95
2019-05-13T05:54:14.778Z,103398.08
2019-05-13T05:56:51.910Z,103395.75
2019-05-13T05:59:26.542Z,103394.23
2019-05-13T06:02:01.931Z,103395.72
2019-05-13T06:04:32.731Z,103389.98
2019-05-13T06:07:04.926Z,103396.32
2019-05-13T06:09:36.302Z,103397.47
2019-05-13T06:12:07.660Z,103388.19
2019-05-13T06:14:42.119Z,103396.91
2019-05-13T06:17:12.481Z,103396.41
2019-05-13T06:19:44.367Z,103400.13
2019-05-13T06:22:15.512Z,103404.67
2019-05-13T06:24:46.865Z,103404.28
2019-05-13T06:27:18.097Z,103406.27
2019-05-13T06:29:52.634Z,103404.18
2019-05-13T06:32:26.246Z,103405.93
2019-05-13T06:34:55.395Z,103403.86
2019-05-13T06:37:26.778Z,103400.27
2019-05-13T06:39:58.235Z,103401.91
2019-05-13T06:42:29.523Z,103398.04
2019-05-13T06:45:01.927Z,103396.52
2019-05-13T06:47:36.155Z,103401.08
2019-05-13T06:50:06.605Z,103399.72
2019-05-13T06:52:37.871Z,103399.69
2019-05-13T06:55:11.575Z,103411.44
2019-05-13T06:57:42.667Z,103397.22
2019-05-13T07:00:14.125Z,103395.61
2019-05-13T07:02:45.345Z,103403.44
2019-05-13T07:05:16.706Z,103399.53
2019-05-13T07:07:47.938Z,103406.86
2019-05-13T07:10:21.480Z,103402.78
2019-05-13T07:12:52.118Z,103403.08
2019-05-13T07:15:23.412Z,103404.66
2019-05-13T07:17:54.613Z,103406.74
2019-05-13T07:20:25.885Z,103406.84
2019-05-13T07:22:57.094Z,103395.78
2019-05-13T07:25:28.349Z,103397.59
2019-05-13T07:28:02.257Z,103402.59
2019-05-13T07:30:43.389Z,103407.95
2019-05-13T07:33:14.836Z,103406.61
2019-05-13T07:35:46.702Z,103416.36
2019-05-13T07:38:19.196Z,103409.04
2019-05-13T07:40:57.599Z,103412.87
2019-05-13T07:43:28.772Z,103410.41
2019-05-13T07:46:02.057Z,103401.97
2019-05-13T07:48:33.342Z,103404.75
2019-05-13T07:51:05.031Z,103401.52
2019-05-13T07:53:37.567Z,103398.33
2019-05-13T07:56:08.855Z,103396.06
2019-05-13T07:58:41.831Z,103387.49
2019-05-13T08:01:13.145Z,103395.46
2019-05-13T08:03:47.105Z,103394.21
2019-05-13T08:06:18.370Z,103390.41
2019-05-13T08:08:52.113Z,103387.84
2019-05-13T08:11:23.991Z,103395.33
2019-05-13T08:14:04.820Z,103411.06
2019-05-13T08:16:56.862Z,103399.06
2019-05-13T08:19:36.949Z,103397.55
2019-05-13T08:22:37.311Z,103406.73
2019-05-13T08:25:38.942Z,103404.22
2019-05-13T08:28:12.303Z,103407.59
2019-05-13T08:30:43.227Z,103413.92
2019-05-13T08:33:14.538Z,103407.78
2019-05-13T08:35:47.215Z,103405.98
2019-05-13T08:38:18.638Z,103403.43
2019-05-13T08:40:51.246Z,103409.71
2019-05-13T08:43:22.785Z,103401.58
2019-05-13T08:45:55.819Z,103400.81
2019-05-13T08:48:27.371Z,103400.88
2019-05-13T08:50:58.649Z,103402.34
2019-05-13T08:53:31.744Z,103395.63
2019-05-13T08:56:02.872Z,103394.56
2019-05-13T08:58:34.113Z,103393.92
2019-05-13T09:01:05.538Z,103381.88
2019-05-13T09:03:36.780Z,103391.27
2019-05-13T09:06:08.277Z,103389.97
2019-05-13T09:08:41.792Z,103386.91
2019-05-13T09:11:13.075Z,103381.66
2019-05-13T09:13:44.276Z,103391.81
2019-05-13T09:16:15.577Z,103395.70
2019-05-13T09:18:52.069Z,103389.01
2019-05-13T09:21:22.655Z,103390.38
2019-05-13T09:23:56.699Z,103387.34
2019-05-13T09:26:31.636Z,103384.21
2019-05-13T09:29:02.660Z,103385.09
2019-05-13T09:31:33.934Z,103389.05
2019-05-13T09:34:05.244Z,103386.31
2019-05-13T09:36:36.512Z,103392.67
2019-05-13T09:39:12.409Z,103386.28
2019-05-13T09:41:44.605Z,103388.87
2019-05-13T09:44:15.606Z,103392.02
2019-05-13T09:46:46.906Z,103381.19
2019-05-13T09:49:20.060Z,103401.19
2019-05-13T09:51:52.273Z,103386.75
2019-05-13T09:54:24.162Z,103391.75
2019-05-13T09:56:55.648Z,103392.61
2019-05-13T09:59:26.912Z,103388.13
2019-05-13T10:01:58.194Z,103385.84
2019-05-13T10:04:31.728Z,103375.03
2019-05-13T10:07:02.838Z,103384.81
2019-05-13T10:09:34.165Z,103373.42
2019-05-13T10:12:05.913Z,103382.16
2019-05-13T10:14:37.074Z,103377.19
2019-05-13T10:17:08.307Z,103380.31
2019-05-13T10:19:41.779Z,103373.51
2019-05-13T10:22:12.451Z,103378.93
2019-05-13T10:24:43.706Z,103362.98
2019-05-13T10:27:18.883Z,103373.23
2019-05-13T10:29:48.578Z,103379.78
2019-05-13T10:32:21.984Z,103378.83
2019-05-13T10:34:54.389Z,103371.03
2019-05-13T10:37:25.900Z,103360.96
2019-05-13T10:39:57.238Z,103371.70
2019-05-13T10:42:28.577Z,103361.37
2019-05-13T10:45:02.575Z,103370.83
2019-05-13T10:47:32.837Z,103353.97
2019-05-13T10:50:04.265Z,103350.42
2019-05-13T10:52:35.505Z,103329.88
2019-05-13T10:55:07.429Z,103342.18
2019-05-13T10:57:38.761Z,103347.78
2019-05-13T11:02:44.328Z,103343.00
2019-05-13T11:05:15.723Z,103342.48
2019-05-13T11:07:46.944Z,103336.33
2019-05-13T11:10:24.240Z,103333.78
2019-05-13T11:12:55.329Z,103335.64
2019-05-13T11:15:26.592Z,103321.59
2019-05-13T11:18:03.072Z,103322.11
2019-05-13T11:20:44.639Z,103309.48
2019-05-13T11:23:23.465Z,103310.39
2019-05-13T11:26:03.243Z,103314.61
2019-05-13T11:28:34.510Z,103317.59
2019-05-13T11:31:05.768Z,103321.66
2019-05-13T11:33:36.984Z,103304.02
2019-05-13T11:36:08.262Z,103300.81
2019-05-13T11:38:43.101Z,103299.52
2019-05-13T11:41:12.740Z,103302.50
2019-05-13T11:43:45.863Z,103298.02
2019-05-13T11:46:17.143Z,103300.28
2019-05-13T11:48:48.523Z,103296.26
2019-05-13T11:51:19.802Z,103294.78
2019-05-13T11:53:52.517Z,103293.14
2019-05-13T11:56:24.040Z,103283.95
2019-05-13T11:58:55.319Z,103285.09
2019-05-13T12:01:26.576Z,103280.93
2019-05-13T12:03:57.711Z,103286.05
2019-05-13T12:06:28.875Z,103274.66
2019-05-13T12:09:03.222Z,103266.25
2019-05-13T12:11:33.512Z,103267.41
2019-05-13T12:14:05.247Z,103267.52
2019-05-13T12:16:36.485Z,103257.21
2019-05-13T12:19:07.835Z,103255.31
2019-05-13T12:21:43.342Z,103255.59
2019-05-13T12:24:12.178Z,103248.88
2019-05-13T12:26:43.689Z,103255.03
2019-05-13T12:29:18.899Z,103256.90
2019-05-13T12:31:52.719Z,103262.50
2019-05-13T12:34:23.675Z,103245.10
2019-05-13T12:36:54.859Z,103248.45
2019-05-13T12:39:26.125Z,103236.09
2019-05-13T12:44:27.287Z,103220.75
2019-05-13T12:46:58.633Z,103230.11
2019-05-13T12:49:33.559Z,103233.52
2019-05-13T12:52:04.641Z,103230.42
2019-05-13T12:54:35.567Z,103229.27
2019-05-13T12:57:11.995Z,103230.11
2019-05-13T12:59:43.036Z,103216.75
2019-05-13T13:05:08.036Z,103216.53
2019-05-13T13:07:18.596Z,103221.15
2019-05-13T13:09:53.118Z,103217.93
2019-05-13T13:12:33.266Z,103217.06
2019-05-13T13:14:55.725Z,103202.16
2019-05-13T13:17:26.997Z,103208.61
2019-05-13T13:20:06.118Z,103202.25
2019-05-13T13:22:32.075Z,103202.47
2019-05-13T13:25:04.893Z,103197.79
2019-05-13T13:28:03.795Z,103198.70
2019-05-13T13:30:10.229Z,103187.80
2019-05-13T13:32:45.338Z,103189.24
2019-05-13T13:35:15.103Z,103196.02
2019-05-13T13:37:46.419Z,103186.18
2019-05-13T13:40:25.900Z,103178.17
2019-05-13T13:42:52.983Z,103187.22
2019-05-13T13:45:36.802Z,103182.16
2019-05-13T13:48:04.442Z,103183.84
2019-05-13T13:50:37.533Z,103171.34
2019-05-13T13:53:13.888Z,103171.03
2019-05-13T13:55:47.759Z,103161.93
2019-05-13T13:58:25.468Z,103173.03
2019-05-13T14:01:05.688Z,103164.38
2019-05-13T14:03:32.956Z,103164.83
2019-05-13T14:06:06.354Z,103159.52
2019-05-13T14:06:32.810Z,103343.29
2019-05-13T14:07:12.861Z,103217.61
2019-05-13T14:08:37.148Z,103161.55
2019-05-13T14:11:08.307Z,103154.97
2019-05-13T14:13:39.658Z,103155.31
2019-05-13T14:16:29.148Z,103153.04
2019-05-13T14:18:55.359Z,103150.28
2019-05-13T14:21:32.424Z,103151.39
2019-05-13T14:24:05.949Z,103147.28
2019-05-13T14:26:43.204Z,103142.90
2019-05-13T14:29:18.210Z,103141.06
2019-05-13T14:31:51.828Z,103135.25
2019-05-13T14:34:22.371Z,103135.88
2019-05-13T14:36:53.738Z,103134.44
2019-05-13T14:39:24.991Z,103121.79
2019-05-13T14:41:56.250Z,103123.44
2019-05-13T14:44:27.474Z,103118.03
2019-05-13T14:46:58.722Z,103120.31
2019-05-13T14:49:31.734Z,103104.42
2019-05-13T14:52:02.838Z,103116.70
2019-05-13T14:54:34.167Z,103114.67
2019-05-13T14:57:05.462Z,103101.33
2019-05-13T14:59:36.721Z,103098.56
2019-05-13T15:02:07.897Z,103098.45
2019-05-13T15:04:41.738Z,103113.80
2019-05-13T15:07:12.284Z,103115.50
2019-05-13T15:09:46.670Z,103106.45
2019-05-13T15:12:18.329Z,103102.76
2019-05-13T15:14:52.068Z,103100.19
2019-05-13T15:17:22.572Z,103109.19
2019-05-13T15:20:09.525Z,103116.50
2019-05-13T15:22:42.474Z,103109.09
2019-05-13T15:25:14.097Z,103114.94
2019-05-13T15:27:45.352Z,103100.32
2019-05-13T15:30:21.813Z,103097.74
2019-05-13T15:33:01.581Z,103097.77
2019-05-13T15:35:32.237Z,103093.30
2019-05-13T15:38:03.514Z,103091.13
2019-05-13T15:40:34.951Z,103085.91
2019-05-13T15:43:06.200Z,103084.57
2019-05-13T15:45:37.492Z,103089.45
2019-05-13T15:48:08.779Z,103090.73
2019-05-13T15:50:42.042Z,103095.34
2019-05-13T15:53:13.062Z,103087.70
2019-05-13T15:55:44.295Z,103078.78
2019-05-13T15:58:15.466Z,103073.90
2019-05-13T16:00:46.736Z,103078.33
2019-05-13T16:03:17.973Z,103072.92
2019-05-13T16:05:51.507Z,103073.09
2019-05-13T16:08:22.080Z,103062.60
2019-05-13T16:10:53.589Z,103072.39
2019-05-13T16:13:24.800Z,103068.71
2019-05-13T16:15:56.104Z,103070.27
2019-05-13T16:18:27.325Z,103078.30
2019-05-13T16:20:58.587Z,103067.45
2019-05-13T16:23:32.481Z,103077.14
2019-05-13T16:26:02.737Z,103066.44
2019-05-13T16:28:33.971Z,103064.25
2019-05-13T16:31:05.294Z,103054.37
2019-05-13T16:33:36.569Z,103069.06
2019-05-13T16:36:07.877Z,103065.64
2019-05-13T16:38:41.418Z,103065.58
2019-05-13T16:41:12.686Z,103068.23
2019-05-13T16:43:44.104Z,103061.91
2019-05-13T16:46:15.379Z,103065.47
2019-05-13T16:48:46.606Z,103067.52
2019-05-13T16:51:17.800Z,103059.22
2019-05-13T16:53:49.066Z,103053.84
2019-05-13T16:56:27.836Z,103059.37
2019-05-13T16:58:53.186Z,103046.75
2019-05-13T17:01:26.840Z,103057.51
2019-05-13T17:03:58.085Z,103049.48
2019-05-13T17:06:29.386Z,103054.05
2019-05-13T17:09:01.996Z,103047.45
2019-05-13T17:11:33.403Z,103050.77
2019-05-13T17:14:11.669Z,103049.89
2019-05-13T17:16:42.982Z,103048.17
2019-05-13T17:19:14.332Z,103043.72
2019-05-13T17:21:45.424Z,103056.47
2019-05-13T17:24:16.689Z,103058.25
2019-05-13T17:26:47.982Z,103042.75
2019-05-13T17:29:21.146Z,103049.19
2019-05-13T17:31:52.119Z,103041.92
2019-05-13T17:34:23.261Z,103039.00
2019-05-13T17:36:54.570Z,103042.75
2019-05-13T17:39:26.026Z,103038.31
2019-05-13T17:41:57.298Z,103035.48
2019-05-13T17:44:28.663Z,103034.41
2019-05-13T17:47:01.730Z,103041.20
2019-05-13T17:49:33.032Z,103041.77
2019-05-13T17:52:04.318Z,103041.84
2019-05-13T17:54:35.918Z,103040.45
2019-05-13T17:57:07.443Z,103040.14
2019-05-13T17:59:38.856Z,103044.61
2019-05-13T18:02:12.856Z,103045.62
2019-05-13T18:04:49.268Z,103041.61
2019-05-13T18:07:23.488Z,103039.32
2019-05-13T18:09:57.793Z,103040.23
2019-05-13T18:12:29.301Z,103043.91
2019-05-13T18:15:02.501Z,103038.94
2019-05-13T18:17:36.231Z,103035.73
2019-05-13T18:20:08.576Z,103031.27
2019-05-13T18:22:42.405Z,103028.50
2019-05-13T18:25:13.979Z,103038.80
2019-05-13T18:27:45.271Z,103039.77
2019-05-13T18:30:16.933Z,103038.88
2019-05-13T18:32:51.803Z,103043.48
2019-05-13T18:35:23.261Z,103041.13
2019-05-13T18:37:56.889Z,103031.67
2019-05-13T18:40:33.766Z,103037.45
2019-05-13T18:43:11.177Z,103038.36
2019-05-13T18:45:42.527Z,103037.66
2019-05-13T18:51:11.871Z,103032.28
2019-05-13T18:53:43.326Z,103033.77
2019-05-13T18:56:14.634Z,103030.48
2019-05-13T18:58:48.639Z,103038.99
2019-05-13T19:01:21.564Z,103037.49
2019-05-13T19:03:53.030Z,103035.34
2019-05-13T19:06:27.245Z,103040.94
2019-05-13T19:09:05.908Z,103044.30
2019-05-13T19:11:38.273Z,103047.00
2019-05-13T19:14:12.255Z,103054.48
2019-05-13T19:16:46.315Z,103055.86
2019-05-13T19:19:20.680Z,103049.17
2019-05-13T19:21:54.471Z,103048.79
2019-05-13T19:24:25.702Z,103056.81
2019-05-13T19:27:01.614Z,103064.12
2019-05-13T19:29:35.291Z,103058.77
2019-05-13T19:32:13.546Z,103066.07
2019-05-13T19:34:47.192Z,103071.91
2019-05-13T19:37:22.488Z,103066.70
2019-05-13T19:39:54.041Z,103066.94
2019-05-13T19:42:25.576Z,103070.45
2019-05-13T19:44:56.807Z,103072.53
2019-05-13T19:47:28.149Z,103076.41
2019-05-13T19:50:01.922Z,103073.38
2019-05-13T19:52:32.289Z,103069.14
2019-05-13T19:55:03.581Z,103073.50
2019-05-13T19:57:34.903Z,103073.14
2019-05-13T20:00:09.971Z,103071.68
2019-05-13T20:02:42.053Z,103075.33
2019-05-13T20:05:13.091Z,103068.30
2019-05-13T20:07:44.384Z,103073.50
2019-05-13T20:10:16.066Z,103075.20
2019-05-13T20:12:48.197Z,103070.56
2019-05-13T20:15:22.958Z,103087.93
2019-05-13T20:17:57.183Z,103071.39
2019-05-13T20:20:32.941Z,103074.33
2019-05-13T20:23:17.610Z,103071.38
2019-05-13T20:25:52.407Z,103072.72
2019-05-13T20:28:23.743Z,103077.43
2019-05-13T20:30:55.027Z,103073.75
2019-05-13T20:33:26.378Z,103073.45
2019-05-13T20:35:57.627Z,103079.73
2019-05-13T20:38:31.458Z,103073.48
2019-05-13T20:41:02.095Z,103078.21
2019-05-13T20:43:35.197Z,103079.44
2019-05-13T20:49:31.659Z,103083.91
2019-05-13T20:52:02.947Z,103091.98
2019-05-13T20:54:34.277Z,103100.44
2019-05-13T20:57:06.604Z,103093.36
2019-05-13T20:59:37.803Z,103096.44
2019-05-13T21:02:09.021Z,103092.38
2019-05-13T21:04:40.378Z,103095.00
2019-05-13T21:07:11.689Z,103091.00
2019-05-13T21:09:43.029Z,103093.30
2019-05-13T21:12:14.559Z,103094.61
2019-05-13T21:14:45.799Z,103097.13
2019-05-13T21:17:18.392Z,103094.51
2019-05-13T21:19:52.822Z,103090.64
2019-05-13T21:22:26.846Z,103100.91
2019-05-13T21:25:02.011Z,103102.33
2019-05-13T21:27:31.543Z,103091.70
2019-05-13T21:30:02.857Z,103091.42
2019-05-13T21:32:34.068Z,103096.25
2019-05-13T21:35:05.539Z,103095.73
2019-05-13T21:37:36.792Z,103105.48
2019-05-13T21:40:11.135Z,103098.19
2019-05-13T21:42:42.137Z,103092.23
2019-05-13T21:45:13.662Z,103096.27
2019-05-13T21:47:44.809Z,103102.12
2019-05-13T21:50:16.071Z,103101.92
2019-05-13T21:52:47.180Z,103105.01
2019-05-13T21:55:18.465Z,103098.89
2019-05-13T21:57:49.730Z,103094.23
2019-05-13T22:00:24.337Z,103094.25
2019-05-13T22:02:55.594Z,103100.47
2019-05-13T22:05:26.855Z,103099.14
2019-05-13T22:07:57.992Z,103092.71
2019-05-13T22:10:31.102Z,103091.40
2019-05-13T22:13:02.076Z,103094.75
2019-05-13T22:15:33.437Z,103097.06
2019-05-13T22:18:04.658Z,103101.42
2019-05-13T22:20:47.385Z,103096.51
2019-05-13T22:23:08.809Z,103092.53
2019-05-13T22:25:43.396Z,103085.61
2019-05-13T22:28:12.896Z,103088.22
2019-05-13T22:30:44.167Z,103084.34
2019-05-13T22:33:15.427Z,103085.98
2019-05-13T22:35:46.705Z,103087.45
2019-05-13T22:38:17.928Z,103083.52
2019-05-13T22:40:49.208Z,103081.96
2019-05-13T22:43:21.160Z,103088.55
2019-05-13T22:45:52.553Z,103083.37
2019-05-13T22:48:23.748Z,103085.75
2019-05-13T22:50:55.067Z,103086.80
2019-05-13T22:53:26.310Z,103083.77
2019-05-13T22:55:57.546Z,103072.48
2019-05-13T22:58:28.750Z,103086.42
2019-05-13T23:01:02.388Z,103081.30
2019-05-13T23:03:32.942Z,103078.02
2019-05-13T23:06:04.169Z,103085.52
2019-05-13T23:08:35.317Z,103086.84
2019-05-13T23:11:06.586Z,103089.98
2019-05-13T23:13:37.754Z,103084.38
2019-05-13T23:16:11.404Z,103084.59
2019-05-13T23:18:42.294Z,103089.80
2019-05-13T23:21:14.350Z,103087.61
2019-05-13T23:23:45.565Z,103086.58
2019-05-13T23:26:16.768Z,103084.88
2019-05-13T23:28:48.000Z,103079.73
2019-05-13T23:31:19.284Z,103081.08
2019-05-13T23:33:50.455Z,103080.50
2019-05-13T23:36:21.713Z,103087.20
2019-05-13T23:38:52.959Z,103087.58
2019-05-13T23:41:24.211Z,103087.20
2019-05-13T23:43:55.446Z,103084.60
2019-05-13T23:46:26.733Z,103086.13
2019-05-13T23:48:57.966Z,103094.52
2019-05-13T23:51:29.172Z,103092.03
2019-05-13T23:54:01.601Z,103094.25
2019-05-13T23:56:32.930Z,103097.05
2019-05-13T23:59:04.224Z,103093.59
